Time;durP1;ratioP1;P1;durP2;ratioP2;P2;SDS_P1;SDS_P2;PMS_P1;PMS_P2;Temp;Humidity;BMP_temperature;BMP_pressure;BME280_temperature;BME280_humidity;BME280_pressure;Samples;Min_cycle;Max_cycle;Signal;HPM_P1;HPM_P2
2023/12/04 05:06:49;;;;;;;;;40.25;31.50;;;;;;;;5848740;39;10000289;-57
2023/12/04 10:50:34;;;;;;;;;33.50;29.25;;;;;;;;6493388;31;9006;-60
2023/12/04 10:56:40;;;;;;;;;31.75;27.75;;;;;;;;6490214;47;9060;-60
2023/12/04 11:02:48;;;;;;;;;33.75;31.50;;;;;;;;6491314;47;8951;-60
2023/12/04 11:08:54;;;;;;;;;36.00;27.75;;;;;;;;6490855;39;8960;-60
2023/12/04 11:15:02;;;;;;;;;32.00;31.25;;;;;;;;6489461;39;9020;-60
2023/12/04 11:21:08;;;;;;;;;43.00;36.50;;;;;;;;6489701;39;9640;-60
2023/12/04 11:27:10;;;;;;;;;29.75;27.25;;;;;;;;6490272;31;8918;-61
2023/12/04 11:33:14;;;;;;;;;36.50;31.50;;;;;;;;6486901;46;8886;-60
2023/12/04 11:39:18;;;;;;;;;29.50;29.50;;;;;;;;6485776;39;8961;-61
2023/12/04 11:45:21;;;;;;;;;43.25;37.75;;;;;;;;6490835;39;8988;-60
2023/12/04 11:51:40;;;;;;;;;30.75;30.75;;;;;;;;6488065;39;8951;-60
2023/12/04 11:57:42;;;;;;;;;35.25;31.50;;;;;;;;6489095;31;8921;-61
2023/12/04 12:03:45;;;;;;;;;33.75;31.00;;;;;;;;6490591;31;9073;-60
2023/12/04 12:09:47;;;;;;;;;35.25;35.25;;;;;;;;6490649;39;8929;-63
2023/12/04 12:15:52;;;;;;;;;29.75;27.00;;;;;;;;6491925;39;8906;-61
2023/12/04 12:21:58;;;;;;;;;43.00;39.50;;;;;;;;6492484;31;8944;-61
2023/12/04 12:28:06;;;;;;;;;36.50;33.50;;;;;;;;6489201;39;8926;-63
2023/12/04 12:34:09;;;;;;;;;45.25;40.00;;;;;;;;6488931;32;8905;-61
2023/12/04 12:40:12;;;;;;;;;43.00;40.00;;;;;;;;6488908;39;8953;-61
2023/12/04 12:46:15;;;;;;;;;33.75;31.25;;;;;;;;6489986;39;8905;-60
2023/12/04 12:52:22;;;;;;;;;35.00;33.25;;;;;;;;6490779;39;8926;-59
2023/12/04 12:58:25;;;;;;;;;41.25;39.75;;;;;;;;6487623;31;8897;-61
2023/12/04 13:04:43;;;;;;;;;34.00;33.00;;;;;;;;6490301;39;8936;-62
2023/12/04 13:10:46;;;;;;;;;43.00;39.75;;;;;;;;6328524;36;9999866;-62
2023/12/04 13:16:49;;;;;;;;;52.25;43.50;;;;;;;;6491044;46;8918;-60
2023/12/04 13:22:51;;;;;;;;;34.50;33.25;;;;;;;;6491302;39;9125;-63
2023/12/04 13:28:54;;;;;;;;;41.75;35.25;;;;;;;;6490993;39;8894;-61
2023/12/04 13:35:11;;;;;;;;;39.75;36.50;;;;;;;;6490448;46;8975;-60
2023/12/04 13:47:34;;;;;;;;;35.00;34.25;;;;;;;;6491992;39;9501;-60
2023/12/04 13:53:40;;;;;;;;;47.75;42.75;;;;;;;;6489303;39;8922;-61
2023/12/04 13:59:45;;;;;;;;;32.75;32.50;;;;;;;;6491121;39;8886;-60
2023/12/04 14:05:48;;;;;;;;;28.75;28.00;;;;;;;;6307370;46;10000939;-60
2023/12/04 14:11:51;;;;;;;;;38.25;33.25;;;;;;;;6490048;31;8882;-62
2023/12/04 14:17:55;;;;;;;;;49.50;40.75;;;;;;;;6489820;39;9032;-60
2023/12/04 14:23:57;;;;;;;;;40.75;39.00;;;;;;;;6489870;39;8920;-60
2023/12/04 14:29:59;;;;;;;;;33.75;30.25;;;;;;;;6489607;46;8859;-61
2023/12/04 14:36:03;;;;;;;;;39.00;36.25;;;;;;;;6470796;31;9065;-61
2023/12/04 14:42:06;;;;;;;;;39.00;32.75;;;;;;;;6486293;39;8985;-61
2023/12/04 14:48:08;;;;;;;;;32.00;29.50;;;;;;;;6488715;39;8925;-60
2023/12/04 14:54:21;;;;;;;;;32.25;31.50;;;;;;;;6490798;39;8886;-58
2023/12/04 15:01:31;;;;;;;;;32.25;29.00;;;;;;;;6489864;39;8960;-60
2023/12/04 15:13:33;;;;;;;;;33.75;32.25;;;;;;;;6490813;39;9009;-59
2023/12/04 15:19:36;;;;;;;;;38.00;34.00;;;;;;;;6490197;39;9612;-60
2023/12/04 15:25:40;;;;;;;;;37.50;32.00;;;;;;;;6488309;31;9040;-59
2023/12/04 15:31:43;;;;;;;;;25.00;20.25;;;;;;;;6489953;47;8997;-59
2023/12/04 15:37:45;;;;;;;;;38.75;34.25;;;;;;;;6491369;39;8913;-61
2023/12/04 15:43:48;;;;;;;;;35.00;30.25;;;;;;;;6491900;39;8938;-60
2023/12/04 15:49:50;;;;;;;;;35.00;30.25;;;;;;;;6490729;46;8917;-60
2023/12/04 15:55:53;;;;;;;;;36.00;33.75;;;;;;;;6490281;46;8882;-60
2023/12/04 16:01:55;;;;;;;;;43.50;39.00;;;;;;;;6490849;39;8987;-60
2023/12/04 16:08:02;;;;;;;;;42.25;32.25;;;;;;;;6488442;39;8914;-60
2023/12/04 16:14:04;;;;;;;;;32.50;25.00;;;;;;;;6490406;39;8929;-60
2023/12/04 16:20:11;;;;;;;;;33.50;29.25;;;;;;;;6490250;46;8886;-60
2023/12/04 16:26:18;;;;;;;;;37.25;32.50;;;;;;;;6489648;39;8909;-59
2023/12/04 16:32:21;;;;;;;;;32.00;32.00;;;;;;;;6490715;39;8898;-60
2023/12/04 16:38:25;;;;;;;;;37.50;32.50;;;;;;;;6489618;46;8933;-59
2023/12/04 16:44:28;;;;;;;;;29.67;28.67;;;;;;;;6490399;39;9004;-59
2023/12/04 16:50:32;;;;;;;;;46.75;40.75;;;;;;;;6491395;31;8922;-58
2023/12/04 16:56:35;;;;;;;;;39.25;33.50;;;;;;;;6490278;39;8922;-60
2023/12/04 17:02:38;;;;;;;;;55.50;36.00;;;;;;;;6489316;46;8933;-59
2023/12/04 17:08:43;;;;;;;;;39.25;28.00;;;;;;;;6490616;39;9017;-60
2023/12/04 17:14:46;;;;;;;;;47.00;40.50;;;;;;;;6489958;39;8945;-60
2023/12/04 17:20:52;;;;;;;;;41.00;37.75;;;;;;;;6490192;39;10208;-56
2023/12/04 17:26:55;;;;;;;;;42.75;38.75;;;;;;;;6490799;39;9356;-53
2023/12/04 17:32:58;;;;;;;;;33.25;31.00;;;;;;;;6489477;39;8893;-55
2023/12/04 17:39:00;;;;;;;;;64.33;49.33;;;;;;;;6489609;39;9506;-56
2023/12/04 17:45:03;;;;;;;;;49.75;44.50;;;;;;;;6490108;39;8943;-54
2023/12/04 17:51:06;;;;;;;;;46.50;40.75;;;;;;;;6489933;39;8879;-54
2023/12/04 17:57:09;;;;;;;;;40.00;37.00;;;;;;;;6489641;39;8865;-53
2023/12/04 18:03:13;;;;;;;;;41.50;39.00;;;;;;;;6489684;31;9020;-56
2023/12/04 18:09:16;;;;;;;;;40.25;36.50;;;;;;;;6490120;39;8833;-57
2023/12/04 18:15:18;;;;;;;;;46.50;42.00;;;;;;;;6489229;39;8851;-55
2023/12/04 18:21:25;;;;;;;;;49.75;43.00;;;;;;;;6489245;39;8873;-58
2023/12/04 18:27:29;;;;;;;;;48.75;43.25;;;;;;;;6489298;39;8909;-52
2023/12/04 18:33:35;;;;;;;;;63.00;50.33;;;;;;;;6490004;31;8905;-53
2023/12/04 18:39:41;;;;;;;;;45.67;43.00;;;;;;;;6489684;39;8847;-52
2023/12/04 18:45:44;;;;;;;;;45.67;42.67;;;;;;;;6489956;39;9120;-55
2023/12/04 18:51:49;;;;;;;;;63.67;50.67;;;;;;;;6489573;39;8819;-55
2023/12/04 18:57:52;;;;;;;;;63.67;52.33;;;;;;;;6489160;39;8901;-52
2023/12/04 19:03:54;;;;;;;;;69.00;54.67;;;;;;;;6489289;31;8941;-52
2023/12/04 19:09:57;;;;;;;;;68.33;55.33;;;;;;;;6489910;39;8940;-53
2023/12/04 19:16:00;;;;;;;;;73.33;57.00;;;;;;;;6491193;46;8923;-57
2023/12/04 19:22:03;;;;;;;;;69.33;56.33;;;;;;;;6490686;31;8901;-59
2023/12/04 19:28:05;;;;;;;;;73.00;58.00;;;;;;;;6490729;39;9050;-56
2023/12/04 19:34:07;;;;;;;;;73.33;59.33;;;;;;;;6490924;39;8850;-54
2023/12/04 19:40:13;;;;;;;;;79.33;62.33;;;;;;;;6490505;39;8900;-55
2023/12/04 19:46:15;;;;;;;;;71.33;57.00;;;;;;;;6491966;31;8905;-55
2023/12/04 19:52:17;;;;;;;;;66.00;55.00;;;;;;;;6490921;39;9566;-55
2023/12/04 19:58:20;;;;;;;;;55.67;45.00;;;;;;;;6490574;39;8937;-57
2023/12/04 20:04:22;;;;;;;;;54.00;48.33;;;;;;;;6490367;39;8871;-56
2023/12/04 20:10:27;;;;;;;;;57.00;49.67;;;;;;;;6491017;31;8877;-54
2023/12/04 20:16:29;;;;;;;;;60.33;50.33;;;;;;;;6490252;39;9601;-55
2023/12/04 20:22:32;;;;;;;;;71.67;55.67;;;;;;;;6489727;46;8853;-54
2023/12/04 20:28:35;;;;;;;;;63.67;48.00;;;;;;;;6490186;46;8925;-55
2023/12/04 20:34:39;;;;;;;;;63.33;52.67;;;;;;;;6490500;39;8916;-55
2023/12/04 20:40:42;;;;;;;;;59.33;50.67;;;;;;;;6490885;39;9579;-55
2023/12/04 20:46:44;;;;;;;;;57.67;47.00;;;;;;;;6491162;31;8981;-55
2023/12/04 20:52:46;;;;;;;;;64.33;51.00;;;;;;;;6491023;39;8975;-57
2023/12/04 20:58:48;;;;;;;;;66.00;50.67;;;;;;;;6491272;39;9975;-53
2023/12/04 21:04:52;;;;;;;;;61.67;51.67;;;;;;;;6490423;46;8905;-53
2023/12/04 21:10:57;;;;;;;;;53.00;46.33;;;;;;;;6488995;39;8911;-55
2023/12/04 21:16:59;;;;;;;;;62.00;51.00;;;;;;;;6490239;46;8863;-55
2023/12/04 21:23:02;;;;;;;;;61.33;48.67;;;;;;;;6490834;31;8845;-56
2023/12/04 21:29:05;;;;;;;;;66.00;53.00;;;;;;;;6489669;39;9326;-53
2023/12/04 21:35:08;;;;;;;;;64.33;50.67;;;;;;;;6490241;39;8865;-54
2023/12/04 21:41:10;;;;;;;;;63.67;52.67;;;;;;;;6489965;46;8835;-56
2023/12/04 21:47:12;;;;;;;;;72.33;56.00;;;;;;;;6490483;39;8885;-54
2023/12/04 21:53:17;;;;;;;;;70.00;59.67;;;;;;;;6489078;46;8897;-50
2023/12/04 21:59:19;;;;;;;;;73.67;60.00;;;;;;;;6489835;39;8976;-54
2023/12/04 22:05:30;;;;;;;;;70.33;58.67;;;;;;;;6489173;39;9470;-53
2023/12/04 22:11:32;;;;;;;;;76.00;60.67;;;;;;;;6489945;39;8988;-52
2023/12/04 22:17:35;;;;;;;;;76.67;59.00;;;;;;;;6489818;46;8947;-56
2023/12/04 22:23:39;;;;;;;;;66.33;53.67;;;;;;;;6489954;39;8897;-54
2023/12/04 22:29:41;;;;;;;;;60.33;48.67;;;;;;;;6489368;46;8854;-57
2023/12/04 22:35:44;;;;;;;;;66.33;54.33;;;;;;;;6490216;39;8919;-55
2023/12/04 22:41:46;;;;;;;;;64.33;51.33;;;;;;;;6489310;46;8953;-55
2023/12/04 22:47:48;;;;;;;;;60.00;50.00;;;;;;;;6489480;39;8921;-53
2023/12/04 22:53:51;;;;;;;;;72.33;55.67;;;;;;;;6489513;47;8898;-53
2023/12/04 22:59:53;;;;;;;;;67.33;55.00;;;;;;;;6488043;47;8897;-56
2023/12/04 23:05:55;;;;;;;;;68.67;57.33;;;;;;;;6488756;39;8886;-57
2023/12/04 23:11:57;;;;;;;;;65.33;55.00;;;;;;;;6488305;47;8854;-56
2023/12/04 23:17:59;;;;;;;;;49.00;42.67;;;;;;;;6489242;39;8906;-54
2023/12/04 23:24:02;;;;;;;;;68.00;54.33;;;;;;;;6489316;39;9025;-55
2023/12/04 23:30:06;;;;;;;;;79.67;61.00;;;;;;;;6489011;39;8974;-51
2023/12/04 23:36:10;;;;;;;;;66.33;57.00;;;;;;;;6489488;39;8940;-54
2023/12/04 23:42:13;;;;;;;;;68.67;55.67;;;;;;;;6489077;39;8937;-55
2023/12/04 23:48:15;;;;;;;;;73.50;60.00;;;;;;;;6488969;46;8905;-54
2023/12/04 23:54:19;;;;;;;;;67.33;58.00;;;;;;;;6488689;39;8882;-56
